Skip Navigation Links Skip Navigation Links

Current Weather

West Georgia Rgnl - O V Gray Field, Carrollton, Ga.

For information only: do not use for flight planning or navigation.
Latest weather
Observation time Tuesday, January 26, 2021 7:55 PM EST
Local time Tuesday, January 26, 2021 8:14 PM EST
Flight conditions Visual Meteorological Conditions
Winds
Wind speed calm
Visibility 10 mi.
Sky condition
Ceiling 9,000 ft. broken clouds
Cloud layer broken clouds 9,000 ft.
Cloud layer broken clouds 11,000 ft.
Temperature 55°F
Dewpoint 50°F
Altimeter 30.00 in.Hg
Derived measurements
Relative humidity 84%
Density altitude 971 ft.
Remarks
Fully automated report.
Automated weather observing station with precipitation discriminator.
METAR KCTJ 270055Z AUTO 00000KT 10SM BKN090 BKN110 13/10 A3000 RMK AO2 T01270100

Settings

Location code

InnerDrive.Weather 4.0.6770.0 Release CLR 4.0.30319.42000
Copyright ©2018 Inner Drive Technology. All rights reserved. Portions Copyright ©1986-2018 David Braverman.

Find weather

Site navigation


Skip Navigation Links

Place info

Page info

PayPal - The safer, easier way to pay online!

Return home.

Copyright ©2021 Inner Drive Technology. Purveyors of fine, hand-crafted computer software. Page printed 2021-01-27T01:14:20 UTC.